createdAt,value
2023-03-15T00:00:49.799Z,0.90
2023-03-15T00:05:53.998Z,1.92
2023-03-15T00:10:56.856Z,0.85
2023-03-15T00:16:01.570Z,0.88
2023-03-15T00:21:06.150Z,1.00
2023-03-15T00:26:09.004Z,0.93
2023-03-15T00:31:16.586Z,0.40
2023-03-15T00:36:23.528Z,0.85
2023-03-15T00:41:26.438Z,0.32
2023-03-15T00:46:29.574Z,1.27
2023-03-15T00:51:33.812Z,0.98
2023-03-15T00:56:37.923Z,0.40
2023-03-15T01:01:44.532Z,0.57
2023-03-15T01:06:48.724Z,0.75
2023-03-15T01:11:52.259Z,1.13
2023-03-15T01:16:55.122Z,0.47
2023-03-15T01:21:59.276Z,0.45
2023-03-15T01:27:02.089Z,0.50
2023-03-15T01:32:05.597Z,1.15
2023-03-15T01:37:10.146Z,0.70
2023-03-15T01:42:13.039Z,0.70
2023-03-15T01:47:15.889Z,0.40
2023-03-15T01:52:24.126Z,1.85
2023-03-15T01:57:30.490Z,0.65
2023-03-15T02:02:33.451Z,0.90
2023-03-15T02:07:50.034Z,0.57
2023-03-15T02:12:54.007Z,0.77
2023-03-15T02:17:56.997Z,0.30
2023-03-15T02:23:03.577Z,0.60
2023-03-15T02:28:10.229Z,0.35
2023-03-15T02:33:17.988Z,0.20
2023-03-15T02:38:22.589Z,0.40
2023-03-15T02:43:30.642Z,0.20
2023-03-15T02:48:36.965Z,0.55
2023-03-15T02:53:39.835Z,0.32
2023-03-15T02:58:45.706Z,0.20
2023-03-15T03:03:48.799Z,0.65
2023-03-15T03:08:51.641Z,0.47
2023-03-15T03:13:55.869Z,0.60
2023-03-15T03:18:58.751Z,0.80
2023-03-15T03:24:01.643Z,0.88
2023-03-15T03:29:06.623Z,0.73
2023-03-15T03:34:09.586Z,0.25
2023-03-15T03:39:12.660Z,0.40
2023-03-15T03:44:17.129Z,0.65
2023-03-15T03:49:19.932Z,0.40
2023-03-15T03:54:23.103Z,1.00
2023-03-15T03:59:27.266Z,0.30
2023-03-15T04:04:30.147Z,0.98
2023-03-15T04:09:37.738Z,0.20
2023-03-15T04:14:41.974Z,0.30
2023-03-15T04:19:46.900Z,0.30
2023-03-15T04:24:50.686Z,0.82
2023-03-15T04:29:54.922Z,0.43
2023-03-15T04:34:57.705Z,0.30
2023-03-15T04:40:01.219Z,0.50
2023-03-15T04:45:06.343Z,0.55
2023-03-15T04:50:10.859Z,0.88
2023-03-15T04:55:14.218Z,1.20
2023-03-15T05:00:19.092Z,0.70
2023-03-15T05:05:23.382Z,0.60
2023-03-15T05:10:26.374Z,0.40
2023-03-15T05:15:30.545Z,0.65
2023-03-15T05:20:33.433Z,0.40
2023-03-15T05:25:38.356Z,0.85
2023-03-15T05:30:43.128Z,1.08
2023-03-15T05:35:46.242Z,1.80
2023-03-15T05:40:49.084Z,0.52
2023-03-15T05:45:54.859Z,0.68
2023-03-15T05:50:57.743Z,0.40
2023-03-15T05:56:00.606Z,0.50
2023-03-15T06:01:05.726Z,0.30
2023-03-15T06:06:08.710Z,0.70
2023-03-15T06:11:11.561Z,0.45
2023-03-15T06:16:15.728Z,4.00
2023-03-15T06:21:18.630Z,1.83
2023-03-15T06:26:22.610Z,0.73
2023-03-15T06:31:26.793Z,2.20
2023-03-15T06:36:30.823Z,2.00
2023-03-15T06:41:33.669Z,1.88
2023-03-15T06:46:37.917Z,1.85
2023-03-15T06:51:42.575Z,2.67
2023-03-15T06:56:45.441Z,2.85
2023-03-15T07:01:49.958Z,1.75
2023-03-15T07:06:53.038Z,3.67
2023-03-15T07:11:55.872Z,3.22
2023-03-15T07:17:00.102Z,2.40
2023-03-15T07:22:02.931Z,1.80
2023-03-15T07:27:06.527Z,8.57
2023-03-15T07:32:10.876Z,2.60
2023-03-15T07:37:13.848Z,4.95
2023-03-15T07:42:16.789Z,5.13
2023-03-15T07:47:21.000Z,1.83
2023-03-15T07:52:24.342Z,5.40
2023-03-15T07:57:28.950Z,1.67
2023-03-15T08:02:33.290Z,5.43
2023-03-15T08:07:36.565Z,4.60
2023-03-15T08:12:40.675Z,1.48
2023-03-15T08:17:45.156Z,4.10
2023-03-15T08:22:49.055Z,3.40
2023-03-15T08:27:52.640Z,5.85
2023-03-15T08:32:56.910Z,3.63
2023-03-15T08:37:59.749Z,2.60
2023-03-15T08:43:02.600Z,3.63
2023-03-15T08:48:07.375Z,2.08
2023-03-15T08:53:10.495Z,2.15
2023-03-15T08:58:14.394Z,3.58
2023-03-15T09:03:19.170Z,2.67
2023-03-15T09:08:21.987Z,1.60
2023-03-15T09:13:25.685Z,10.48
2023-03-15T09:18:30.226Z,1.77
2023-03-15T09:23:33.046Z,3.47
2023-03-15T09:28:35.905Z,1.13
2023-03-15T09:33:40.110Z,1.88
2023-03-15T09:38:44.346Z,2.80
2023-03-15T09:44:10.812Z,2.03
2023-03-15T09:49:20.487Z,1.92
2023-03-15T09:54:29.273Z,2.88
2023-03-15T09:59:35.532Z,1.48
2023-03-15T10:04:42.242Z,5.10
2023-03-15T10:09:47.449Z,6.03
2023-03-15T10:15:03.337Z,5.22
2023-03-15T10:20:13.076Z,10.20
2023-03-15T10:25:23.489Z,8.07
2023-03-15T10:30:27.997Z,8.68
2023-03-15T10:35:33.081Z,6.28
2023-03-15T10:40:44.684Z,6.95
2023-03-15T10:46:01.293Z,8.13
2023-03-15T10:51:07.982Z,9.90
2023-03-15T10:56:25.964Z,7.47
2023-03-15T11:01:34.536Z,5.80
2023-03-15T11:06:43.587Z,3.55
2023-03-15T11:11:54.765Z,4.75
2023-03-15T11:17:00.148Z,5.18
2023-03-15T11:22:04.737Z,5.78
2023-03-15T11:27:14.037Z,4.85
2023-03-15T11:32:20.039Z,4.85
2023-03-15T11:37:29.154Z,3.13
2023-03-15T11:42:35.753Z,3.45
2023-03-15T11:47:44.651Z,4.38
2023-03-15T11:52:51.531Z,2.80
2023-03-15T11:57:56.747Z,3.50
2023-03-15T12:03:01.870Z,3.03
2023-03-15T12:08:21.316Z,4.55
2023-03-15T12:13:26.370Z,2.85
2023-03-15T12:18:44.699Z,2.42
2023-03-15T12:24:01.523Z,3.85
2023-03-15T12:29:09.825Z,2.60
2023-03-15T12:34:16.744Z,4.25
2023-03-15T12:39:41.394Z,1.42
2023-03-15T12:44:45.261Z,2.63
2023-03-15T12:49:48.375Z,3.78
2023-03-15T12:54:59.270Z,1.70
2023-03-15T13:00:06.776Z,1.88
2023-03-15T13:05:24.398Z,2.63
2023-03-15T13:10:50.949Z,0.90
2023-03-15T13:16:07.637Z,2.30
2023-03-15T13:21:16.527Z,1.70
2023-03-15T13:26:43.337Z,3.10
2023-03-15T13:31:47.269Z,1.38
2023-03-15T13:36:55.750Z,2.83
2023-03-15T13:42:01.124Z,2.63
2023-03-15T13:47:03.995Z,1.52
2023-03-15T13:52:12.272Z,2.38
2023-03-15T13:57:18.261Z,2.00
2023-03-15T14:02:25.100Z,1.15
2023-03-15T14:07:30.720Z,1.35
2023-03-15T14:12:35.290Z,1.45
2023-03-15T14:17:38.267Z,1.95
2023-03-15T14:22:43.440Z,1.25
2023-03-15T14:27:47.787Z,1.33
2023-03-15T14:32:55.326Z,3.50
2023-03-15T14:38:02.859Z,0.77
2023-03-15T14:43:08.560Z,0.98
2023-03-15T14:48:14.799Z,0.98
2023-03-15T14:53:19.999Z,1.48
2023-03-15T14:58:24.381Z,1.33
2023-03-15T15:03:33.872Z,2.15
2023-03-15T15:08:40.045Z,2.45
2023-03-15T15:13:44.330Z,0.82
2023-03-15T15:18:47.208Z,1.30
2023-03-15T15:23:58.311Z,0.95
2023-03-15T15:29:03.255Z,1.30
2023-03-15T15:34:06.201Z,1.25
2023-03-15T15:39:21.234Z,1.42
2023-03-15T15:44:26.472Z,0.88
2023-03-15T15:49:29.302Z,0.57
2023-03-15T15:54:35.737Z,1.30
2023-03-15T15:59:39.944Z,2.10
2023-03-15T16:04:42.776Z,0.93
2023-03-15T16:09:48.997Z,1.02
2023-03-15T16:14:53.216Z,0.90
2023-03-15T16:19:56.092Z,1.17
2023-03-15T16:25:01.439Z,1.35
2023-03-15T16:30:07.319Z,0.82
2023-03-15T16:35:15.319Z,0.57
2023-03-15T16:40:23.741Z,1.27
2023-03-15T16:45:28.679Z,1.50
2023-03-15T16:50:32.534Z,0.47
2023-03-15T16:55:35.366Z,1.20
2023-03-15T17:00:39.565Z,0.52
2023-03-15T17:05:43.673Z,0.60
2023-03-15T17:10:47.344Z,1.25
2023-03-15T17:15:51.554Z,0.60
2023-03-15T17:20:54.409Z,0.65
2023-03-15T17:25:57.392Z,0.65
2023-03-15T17:31:23.183Z,0.75
2023-03-15T17:36:26.289Z,0.95
2023-03-15T17:41:30.705Z,1.33
2023-03-15T17:46:35.056Z,1.42
2023-03-15T17:51:39.259Z,1.10
2023-03-15T17:56:42.292Z,1.75
2023-03-15T18:01:48.748Z,2.30
2023-03-15T18:06:53.090Z,1.13
2023-03-15T18:11:56.009Z,0.93
2023-03-15T18:17:00.250Z,1.92
2023-03-15T18:22:03.085Z,5.10
2023-03-15T18:27:05.941Z,5.90
2023-03-15T18:32:11.426Z,4.93
2023-03-15T18:37:14.377Z,4.07
2023-03-15T18:42:17.222Z,3.85
2023-03-15T18:47:21.475Z,3.88
2023-03-15T18:52:24.633Z,3.25
2023-03-15T18:57:27.501Z,4.13
2023-03-15T19:02:31.804Z,3.45
2023-03-15T19:07:34.748Z,3.33
2023-03-15T19:12:37.800Z,1.63
2023-03-15T19:17:42.735Z,2.75
2023-03-15T19:22:45.964Z,3.38
2023-03-15T19:27:49.290Z,3.15
2023-03-15T19:32:53.804Z,1.33
2023-03-15T19:37:57.105Z,2.13
2023-03-15T19:43:00.531Z,2.20
2023-03-15T19:48:05.021Z,4.03
2023-03-15T19:53:07.968Z,1.80
2023-03-15T19:58:10.864Z,6.22
2023-03-15T20:03:15.043Z,1.60
2023-03-15T20:08:18.036Z,3.00
2023-03-15T20:13:20.847Z,1.80
2023-03-15T20:18:25.081Z,1.58
2023-03-15T20:23:28.493Z,4.47
2023-03-15T20:28:31.334Z,8.10
2023-03-15T20:33:35.693Z,5.38
2023-03-15T20:38:38.596Z,4.22
2023-03-15T20:43:42.329Z,5.40
2023-03-15T20:48:46.656Z,2.67
2023-03-15T20:53:49.473Z,2.83
2023-03-15T20:58:52.697Z,3.22
2023-03-15T21:03:57.449Z,1.92
2023-03-15T21:09:00.339Z,2.63
2023-03-15T21:14:03.195Z,4.78
2023-03-15T21:19:07.373Z,1.80
2023-03-15T21:24:10.512Z,5.32
2023-03-15T21:29:13.309Z,1.65
2023-03-15T21:34:17.567Z,2.25
2023-03-15T21:39:20.422Z,3.58
2023-03-15T21:44:23.275Z,1.75
2023-03-15T21:49:27.548Z,2.22
2023-03-15T21:54:30.565Z,1.45
2023-03-15T21:59:33.611Z,1.95
2023-03-15T22:04:37.881Z,3.28
2023-03-15T22:09:41.847Z,1.33
2023-03-15T22:14:45.920Z,3.55
2023-03-15T22:19:51.677Z,3.83
2023-03-15T22:24:54.578Z,1.73
2023-03-15T22:29:57.437Z,1.25
2023-03-15T22:35:01.642Z,1.30
2023-03-15T22:40:05.862Z,1.50
2023-03-15T22:45:10.273Z,2.13
2023-03-15T22:50:14.768Z,1.88
2023-03-15T22:55:19.069Z,3.13
2023-03-15T23:00:23.440Z,2.55
2023-03-15T23:05:27.767Z,2.25
2023-03-15T23:10:31.324Z,1.70
2023-03-15T23:15:34.477Z,2.33
2023-03-15T23:20:38.706Z,1.58
2023-03-15T23:25:41.591Z,1.33
2023-03-15T23:30:45.585Z,1.80
2023-03-15T23:35:49.797Z,1.05
2023-03-15T23:40:56.165Z,0.95
2023-03-15T23:45:59.934Z,1.88
2023-03-15T23:51:04.329Z,1.13
2023-03-15T23:56:07.886Z,1.10
